Time;durP1;ratioP1;P1;durP2;ratioP2;P2;SDS_P1;SDS_P2;PMS_P1;PMS_P2;Temp;Humidity;BMP_temperature;BMP_pressure;BME280_temperature;BME280_humidity;BME280_pressure;Samples;Min_cycle;Max_cycle;Signal;HPM_P1;HPM_P2
2022/03/21 00:00:42;;;;;;;24.15;14.70;;;15.50;79.60;;;;;;4979512;28;20046;-71
2022/03/21 00:03:09;;;;;;;23.10;14.95;;;15.50;80.00;;;;;;5004792;28;20050;-71
2022/03/21 00:05:35;;;;;;;21.08;13.75;;;;;;;;;;4998148;28;20054;-71
2022/03/21 00:08:02;;;;;;;21.70;14.80;;;;;;;;;;5013997;28;20093;-68
2022/03/21 00:10:30;;;;;;;21.65;14.95;;;15.30;79.80;;;;;;4996165;28;20420;-69
2022/03/21 00:12:56;;;;;;;22.77;14.73;;;15.30;79.90;;;;;;5004916;28;20038;-71
2022/03/21 00:15:23;;;;;;;24.90;15.07;;;15.40;77.80;;;;;;5005203;28;20100;-72
2022/03/21 00:17:49;;;;;;;21.25;14.90;;;15.40;80.20;;;;;;4996356;28;20053;-70
2022/03/21 00:20:15;;;;;;;21.88;15.20;;;;;;;;;;4993029;28;20046;-69
2022/03/21 00:22:42;;;;;;;21.55;15.00;;;15.30;80.10;;;;;;5013861;28;20057;-70
2022/03/21 00:25:08;;;;;;;22.63;15.48;;;15.20;80.10;;;;;;4996645;28;20050;-70
2022/03/21 00:27:37;;;;;;;23.92;15.38;;;15.30;80.70;;;;;;4996769;28;20042;-71
2022/03/21 00:30:06;;;;;;;23.27;15.55;;;15.30;80.40;;;;;;4986984;28;20038;-71
2022/03/21 00:32:32;;;;;;;25.55;16.13;;;14.90;77.90;;;;;;5003556;28;20130;-71
2022/03/21 00:34:58;;;;;;;21.08;15.07;;;;;;;;;;4996478;28;20121;-70
2022/03/21 00:37:25;;;;;;;21.20;15.40;;;;;;;;;;4998045;28;20047;-70
2022/03/21 00:39:51;;;;;;;23.98;15.70;;;15.20;80.60;;;;;;4991043;28;20114;-71
2022/03/21 00:42:17;;;;;;;23.70;16.23;;;15.10;80.80;;;;;;4996051;28;20487;-71
2022/03/21 00:44:43;;;;;;;23.63;16.25;;;15.20;80.90;;;;;;4976080;28;20104;-62
2022/03/21 00:47:08;;;;;;;22.50;16.70;;;15.10;80.80;;;;;;5015898;28;20081;-61
2022/03/21 00:49:34;;;;;;;23.70;16.70;;;15.40;81.80;;;;;;4998295;28;20492;-62
2022/03/21 00:52:00;;;;;;;24.08;16.15;;;15.00;80.80;;;;;;4998028;28;20054;-61
2022/03/21 00:54:26;;;;;;;24.13;16.83;;;15.20;81.00;;;;;;5014719;28;20074;-62
2022/03/21 00:56:52;;;;;;;21.92;16.90;;;15.10;78.60;;;;;;5002404;28;20077;-61
2022/03/21 00:59:17;;;;;;;24.60;16.02;;;15.10;81.20;;;;;;4996079;28;20510;-61
2022/03/21 01:01:43;;;;;;;25.95;18.23;;;14.90;81.40;;;;;;4995870;28;20181;-65
2022/03/21 01:04:09;;;;;;;25.90;17.08;;;15.20;81.70;;;;;;5015110;28;20052;-61
2022/03/21 01:06:35;;;;;;;23.73;16.85;;;15.00;81.00;;;;;;5015010;28;20112;-61
2022/03/21 01:09:01;;;;;;;23.80;16.85;;;15.00;81.20;;;;;;5015102;28;20496;-61
2022/03/21 01:11:27;;;;;;;24.80;17.27;;;15.30;81.30;;;;;;4999830;28;20077;-62
2022/03/21 01:13:53;;;;;;;24.17;17.25;;;15.10;81.10;;;;;;4991266;28;20473;-62
2022/03/21 01:16:18;;;;;;;24.95;16.88;;;15.20;81.30;;;;;;5004377;28;20046;-62
2022/03/21 01:18:45;;;;;;;24.40;16.70;;;15.10;81.10;;;;;;4996000;28;20065;-61
2022/03/21 01:21:11;;;;;;;23.75;17.25;;;15.20;81.30;;;;;;4996130;28;20522;-61
2022/03/21 01:23:37;;;;;;;25.92;18.35;;;15.40;81.40;;;;;;5021870;28;20399;-62
2022/03/21 01:26:03;;;;;;;24.85;17.65;;;15.30;81.60;;;;;;5002536;28;20053;-61
2022/03/21 01:28:29;;;;;;;26.95;18.48;;;15.20;81.80;;;;;;5009750;28;20571;-62
2022/03/21 01:30:55;;;;;;;24.10;17.80;;;;;;;;;;5006974;28;20117;-64
2022/03/21 01:33:21;;;;;;;24.33;17.90;;;15.00;81.20;;;;;;5002983;28;20081;-61
2022/03/21 01:35:46;;;;;;;24.30;17.65;;;15.20;81.50;;;;;;4994794;28;20069;-62
2022/03/21 01:38:12;;;;;;;26.48;19.48;;;15.40;81.80;;;;;;4977607;28;20054;-62
2022/03/21 01:40:38;;;;;;;23.92;18.40;;;15.20;81.90;;;;;;4994845;28;20074;-71
2022/03/21 01:43:10;;;;;;;24.40;18.17;;;;;;;;;;4995238;28;20473;-68
2022/03/21 01:45:36;;;;;;;25.27;18.13;;;15.00;79.10;;;;;;5009516;28;20046;-70
2022/03/21 01:48:02;;;;;;;28.83;19.15;;;15.00;81.70;;;;;;5005683;28;20374;-71
2022/03/21 01:50:28;;;;;;;25.73;18.45;;;15.30;82.00;;;;;;4993242;28;20050;-71
2022/03/21 01:55:43;;;;;;;26.17;18.40;;;15.30;81.60;;;;;;4999254;28;20395;-71
2022/03/21 01:55:47;;;;;;;25.25;17.50;;;15.10;79.10;;;;;;5013467;28;20046;-70
2022/03/21 01:58:13;;;;;;;24.67;17.05;;;15.30;81.70;;;;;;5013412;28;20039;-70
2022/03/21 02:00:41;;;;;;;24.90;17.83;;;15.20;78.30;;;;;;5017677;28;20384;-70
2022/03/21 02:03:07;;;;;;;24.33;17.80;;;15.20;81.30;;;;;;5014437;28;20045;-70
2022/03/21 02:05:34;;;;;;;23.45;17.05;;;15.20;81.30;;;;;;5014307;28;20495;-71
2022/03/21 02:08:00;;;;;;;26.63;17.80;;;15.30;81.50;;;;;;5012337;28;20120;-70
2022/03/21 02:10:26;;;;;;;23.10;17.25;;;15.20;81.40;;;;;;5010538;28;20057;-71
2022/03/21 02:12:52;;;;;;;23.23;16.45;;;15.30;81.20;;;;;;5015804;28;20459;-71
2022/03/21 02:15:18;;;;;;;22.67;16.48;;;;;;;;;;5014027;28;20565;-70
2022/03/21 02:17:44;;;;;;;21.83;16.75;;;15.50;81.30;;;;;;5026653;28;20095;-71
2022/03/21 02:20:10;;;;;;;23.80;17.02;;;15.30;78.80;;;;;;5012794;28;20054;-71
2022/03/21 02:22:52;;;;;;;23.35;16.67;;;15.20;78.40;;;;;;5014121;28;20049;-71
2022/03/21 02:25:32;;;;;;;25.30;17.40;;;;;;;;;;5000059;28;20049;-71
2022/03/21 02:27:59;;;;;;;25.77;17.33;;;15.40;81.30;;;;;;5032329;28;20415;-71
2022/03/21 02:30:26;;;;;;;23.92;16.98;;;;;;;;;;5031171;28;20087;-70
2022/03/21 02:32:51;;;;;;;23.88;16.67;;;15.50;81.30;;;;;;5014605;28;20040;-71
2022/03/21 02:35:18;;;;;;;24.63;16.42;;;;;;;;;;5033078;28;20117;-71
2022/03/21 02:37:44;;;;;;;26.60;17.05;;;15.50;81.30;;;;;;5010987;28;20056;-70
2022/03/21 02:40:10;;;;;;;22.77;16.08;;;15.20;81.30;;;;;;5007687;28;20037;-70
2022/03/21 02:42:36;;;;;;;23.10;16.13;;;15.40;81.20;;;;;;5016069;28;20040;-69
2022/03/21 02:45:01;;;;;;;24.52;15.80;;;15.40;81.20;;;;;;5031299;28;20048;-70
2022/03/21 02:47:27;;;;;;;23.98;16.65;;;15.30;78.70;;;;;;5027896;28;20052;-70
2022/03/21 02:49:53;;;;;;;23.90;16.15;;;15.20;81.10;;;;;;5014939;28;20042;-69
2022/03/21 02:52:19;;;;;;;21.67;15.30;;;15.50;81.40;;;;;;5026506;28;20065;-70
2022/03/21 02:54:44;;;;;;;23.08;15.93;;;15.30;81.20;;;;;;5015196;28;20045;-71
2022/03/21 02:57:10;;;;;;;21.55;15.80;;;15.40;81.50;;;;;;5013787;28;20503;-70
2022/03/21 02:59:36;;;;;;;22.23;15.73;;;;;;;;;;5033194;28;20050;-68
2022/03/21 03:02:02;;;;;;;21.13;15.57;;;15.20;80.70;;;;;;5017936;28;20084;-70
2022/03/21 03:04:28;;;;;;;22.48;14.90;;;15.20;81.30;;;;;;5013646;28;20528;-71
2022/03/21 03:06:54;;;;;;;21.00;14.35;;;15.30;81.30;;;;;;5030809;28;20060;-70
2022/03/21 03:09:20;;;;;;;21.65;14.80;;;15.20;81.10;;;;;;5018820;28;20042;-67
2022/03/21 03:11:45;;;;;;;24.55;15.20;;;15.10;81.40;;;;;;5013807;28;20452;-71
2022/03/21 03:14:12;;;;;;;22.40;16.08;;;;;;;;;;4996074;28;20132;-71
2022/03/21 03:16:37;;;;;;;22.23;15.25;;;15.20;81.30;;;;;;5027319;28;20057;-71
2022/03/21 03:19:03;;;;;;;22.63;14.93;;;15.40;81.30;;;;;;5033236;28;20045;-71
2022/03/21 03:21:50;;;;;;;19.15;14.45;;;15.30;81.20;;;;;;4996940;28;20531;-70
2022/03/21 03:24:16;;;;;;;23.20;14.40;;;;;;;;;;4995611;28;20050;-69
2022/03/21 03:26:42;;;;;;;19.33;14.20;;;;;;;;;;5021506;28;20100;-70
2022/03/21 03:29:07;;;;;;;19.73;14.13;;;15.30;81.40;;;;;;4995460;28;20045;-71
2022/03/21 03:31:34;;;;;;;20.10;14.20;;;15.40;81.40;;;;;;5030223;28;20049;-70
2022/03/21 03:33:59;;;;;;;22.63;14.88;;;15.10;81.30;;;;;;5005406;28;20128;-71
2022/03/21 03:36:25;;;;;;;21.35;14.73;;;15.30;78.90;;;;;;5012742;28;20046;-70
2022/03/21 03:38:51;;;;;;;22.27;14.93;;;15.20;81.30;;;;;;5026189;28;20091;-70
2022/03/21 03:41:17;;;;;;;23.67;15.27;;;15.20;80.80;;;;;;5015305;28;20053;-71
2022/03/21 03:43:43;;;;;;;22.45;16.20;;;15.40;81.40;;;;;;5006390;28;20056;-70
2022/03/21 03:46:09;;;;;;;22.95;15.85;;;15.00;81.30;;;;;;5013827;28;20049;-70
2022/03/21 03:48:35;;;;;;;25.58;16.30;;;15.10;81.50;;;;;;5016553;28;20124;-71
2022/03/21 03:51:03;;;;;;;21.88;15.38;;;15.00;81.50;;;;;;5030143;28;20052;-70
2022/03/21 03:53:29;;;;;;;20.98;15.25;;;;;;;;;;5035397;28;20404;-69
2022/03/21 03:55:55;;;;;;;22.77;15.40;;;15.00;81.20;;;;;;5014357;28;20049;-70
2022/03/21 03:58:21;;;;;;;22.25;15.40;;;15.20;81.50;;;;;;5033704;28;20048;-72
2022/03/21 04:00:47;;;;;;;22.75;15.50;;;15.20;81.40;;;;;;5022369;28;20402;-71
2022/03/21 04:05:57;;;;;;;22.83;15.20;;;15.20;81.80;;;;;;5022802;28;20139;-71
2022/03/21 04:08:23;;;;;;;24.83;16.23;;;;;;;;;;5031933;28;20081;-70
2022/03/21 04:10:49;;;;;;;23.83;16.33;;;15.10;81.50;;;;;;5024709;28;20057;-71
2022/03/21 04:13:15;;;;;;;24.17;16.55;;;15.30;81.60;;;;;;5030500;28;20045;-71
2022/03/21 04:15:40;;;;;;;23.63;15.80;;;15.10;81.60;;;;;;5035229;28;20050;-70
2022/03/21 04:18:06;;;;;;;24.55;15.77;;;15.00;78.90;;;;;;5022110;28;20045;-71
2022/03/21 04:20:33;;;;;;;24.10;16.20;;;;;;;;;;5015842;28;20041;-71
2022/03/21 04:22:59;;;;;;;22.23;15.77;;;15.30;81.80;;;;;;5015563;28;20519;-70
2022/03/21 04:25:25;;;;;;;23.00;16.52;;;15.20;81.50;;;;;;5006304;28;20095;-72
2022/03/21 04:27:51;;;;;;;22.45;16.00;;;;;;;;;;5035411;28;20383;-69
2022/03/21 04:30:16;;;;;;;21.50;16.25;;;15.20;81.90;;;;;;5015928;28;20487;-72
2022/03/21 04:32:44;;;;;;;23.58;16.75;;;;;;;;;;5022275;28;20086;-72
2022/03/21 04:35:10;;;;;;;22.73;15.80;;;15.40;78.60;;;;;;5022852;28;20439;-70
2022/03/21 04:37:37;;;;;;;22.83;15.95;;;15.20;81.60;;;;;;5024999;28;20476;-71
2022/03/21 04:40:04;;;;;;;23.88;15.90;;;15.10;81.70;;;;;;5032042;28;20121;-71
2022/03/21 04:42:30;;;;;;;20.42;15.23;;;15.10;81.70;;;;;;4998487;28;20060;-71
2022/03/21 04:44:55;;;;;;;24.88;16.52;;;14.70;79.10;;;;;;5014651;28;20392;-70
2022/03/21 04:47:22;;;;;;;22.98;15.75;;;;;;;;;;5015328;28;20143;-70
2022/03/21 04:49:48;;;;;;;22.02;15.15;;;15.00;81.50;;;;;;5024021;28;20164;-71
2022/03/21 04:52:14;;;;;;;23.33;16.50;;;;;;;;;;5014997;28;20084;-72
2022/03/21 04:54:40;;;;;;;24.30;16.00;;;14.90;79.00;;;;;;5002976;28;20052;-69
2022/03/21 04:57:06;;;;;;;22.27;15.23;;;15.10;81.70;;;;;;4994169;28;20128;-69
2022/03/21 04:59:33;;;;;;;20.75;15.57;;;15.00;79.00;;;;;;5010234;28;20399;-71
2022/03/21 05:01:59;;;;;;;23.85;15.85;;;15.00;81.50;;;;;;4985718;28;20056;-70
2022/03/21 05:04:26;;;;;;;23.67;16.33;;;;;;;;;;5015766;28;20225;-69
2022/03/21 05:06:54;;;;;;;21.55;15.40;;;;;;;;;;5028281;28;20472;-71
2022/03/21 05:09:20;;;;;;;23.13;15.82;;;14.90;81.40;;;;;;5016102;28;20049;-72
2022/03/21 05:11:46;;;;;;;20.85;15.85;;;14.90;81.60;;;;;;5033249;28;20037;-68
2022/03/21 05:14:11;;;;;;;21.50;15.73;;;14.80;81.60;;;;;;5024865;28;20046;-71
2022/03/21 05:16:38;;;;;;;18.42;13.77;;;14.90;81.80;;;;;;5027926;28;20471;-70
2022/03/21 05:19:05;;;;;;;20.77;15.77;;;;;;;;;;5027205;28;20037;-71
2022/03/21 05:21:31;;;;;;;22.77;14.70;;;;;;;;;;5008302;28;20084;-72
2022/03/21 05:32:10;;;;;;;22.67;15.48;;;;;;;;;;5015034;28;20038;-71
2022/03/21 05:37:20;;;;;;;22.63;15.25;;;14.80;81.70;;;;;;5028690;28;20133;-68
2022/03/21 05:42:29;;;;;;;23.42;15.52;;;14.70;79.20;;;;;;5021796;28;20045;-69
2022/03/21 05:44:55;;;;;;;23.80;16.08;;;14.60;81.60;;;;;;5019638;28;20050;-70
2022/03/21 05:47:21;;;;;;;21.38;14.88;;;14.80;81.80;;;;;;5014784;28;20046;-70
2022/03/21 05:49:46;;;;;;;20.83;14.65;;;14.90;81.90;;;;;;5024524;28;20602;-71
2022/03/21 05:52:12;;;;;;;20.25;14.45;;;14.90;81.80;;;;;;5017155;28;20052;-67
2022/03/21 05:54:38;;;;;;;21.38;15.10;;;14.80;79.30;;;;;;5014467;28;20403;-70
2022/03/21 05:57:04;;;;;;;23.00;16.02;;;14.70;81.70;;;;;;5019787;28;20030;-70
2022/03/21 06:02:16;;;;;;;22.70;14.68;;;14.90;81.90;;;;;;5030760;28;20048;-70
2022/03/21 06:04:42;;;;;;;21.15;14.43;;;15.00;82.00;;;;;;5026367;28;20116;-70
2022/03/21 06:07:10;;;;;;;24.20;14.93;;;14.90;82.10;;;;;;5032056;28;20053;-71
2022/03/21 06:09:36;;;;;;;20.80;14.18;;;14.80;82.50;;;;;;5031631;28;20045;-70
2022/03/21 06:12:01;;;;;;;23.42;15.40;;;15.00;82.00;;;;;;5033859;28;20072;-69
2022/03/21 06:14:27;;;;;;;21.83;14.57;;;15.00;82.00;;;;;;5024633;28;20050;-70
2022/03/21 06:16:53;;;;;;;22.95;15.13;;;14.80;82.10;;;;;;5018593;28;20446;-68
2022/03/21 06:19:19;;;;;;;23.92;15.38;;;15.10;82.10;;;;;;5032137;28;20072;-70
2022/03/21 06:21:44;;;;;;;21.08;14.35;;;15.00;81.90;;;;;;5024337;28;20044;-68
2022/03/21 06:24:13;;;;;;;20.75;14.70;;;15.10;79.30;;;;;;5017106;28;20121;-69
2022/03/21 06:26:42;;;;;;;22.55;14.60;;;15.30;81.90;;;;;;5033812;28;20046;-70
2022/03/21 06:29:08;;;;;;;20.17;14.13;;;15.40;82.20;;;;;;5028798;28;20037;-67
2022/03/21 06:31:34;;;;;;;21.13;13.95;;;15.30;82.10;;;;;;5024576;28;20100;-69
2022/03/21 06:34:00;;;;;;;21.60;15.68;;;;;;;;;;5011207;28;20049;-69
2022/03/21 06:36:26;;;;;;;21.60;15.32;;;;;;;;;;5016982;28;20045;-67
2022/03/21 06:38:52;;;;;;;22.58;15.38;;;15.50;81.70;;;;;;5032630;28;20467;-70
2022/03/21 06:41:19;;;;;;;20.95;15.00;;;;;;;;;;5023144;28;20161;-69
2022/03/21 06:43:45;;;;;;;21.27;15.45;;;;;;;;;;5013607;28;20096;-70
2022/03/21 06:46:11;;;;;;;19.25;14.95;;;15.70;81.30;;;;;;5028899;28;20049;-71
2022/03/21 06:48:37;;;;;;;21.35;14.93;;;;;;;;;;5030948;28;20048;-67
2022/03/21 06:51:03;;;;;;;24.00;13.88;;;15.60;80.90;;;;;;5020958;28;20099;-70
2022/03/21 06:53:29;;;;;;;20.55;14.25;;;16.20;78.40;;;;;;5014935;28;20041;-71
2022/03/21 06:55:54;;;;;;;19.08;13.73;;;16.30;80.80;;;;;;5024617;28;20392;-70
2022/03/21 06:58:20;;;;;;;23.10;14.60;;;;;;;;;;5012340;28;20046;-70
2022/03/21 07:00:47;;;;;;;20.80;14.73;;;;;;;;;;5029728;28;20045;-70
2022/03/21 07:03:15;;;;;;;19.33;13.90;;;16.50;80.40;;;;;;5015754;28;20502;-67
2022/03/21 07:05:41;;;;;;;21.45;14.00;;;16.80;80.40;;;;;;5022061;28;20132;-66
2022/03/21 07:08:06;;;;;;;19.60;13.55;;;16.70;76.80;;;;;;5025471;28;20086;-69
2022/03/21 07:10:33;;;;;;;18.15;13.25;;;16.90;80.40;;;;;;5014814;28;20108;-66
2022/03/21 07:13:02;;;;;;;18.02;13.15;;;16.80;80.00;;;;;;5028816;28;20053;-65
2022/03/21 07:15:28;;;;;;;20.45;13.52;;;16.90;80.00;;;;;;5014212;28;20064;-68
2022/03/21 07:17:55;;;;;;;19.73;13.07;;;16.80;79.70;;;;;;5015240;28;20483;-70
2022/03/21 07:20:22;;;;;;;17.08;12.90;;;;;;;;;;5034731;28;20042;-70
2022/03/21 07:22:47;;;;;;;18.90;13.52;;;17.30;79.80;;;;;;5019354;28;20045;-70
2022/03/21 07:25:13;;;;;;;18.35;12.85;;;17.30;79.60;;;;;;5017982;28;20057;-69
2022/03/21 07:27:42;;;;;;;16.48;12.52;;;17.30;79.50;;;;;;5014440;28;20052;-69
2022/03/21 07:30:08;;;;;;;16.70;12.77;;;17.30;79.30;;;;;;5018915;28;20131;-66
2022/03/21 07:32:34;;;;;;;16.17;12.85;;;17.40;79.30;;;;;;5018764;28;20107;-71
2022/03/21 07:35:00;;;;;;;17.90;13.10;;;17.80;79.40;;;;;;5019207;28;20050;-67
2022/03/21 07:37:26;;;;;;;17.27;12.40;;;17.50;79.20;;;;;;5034899;28;20124;-67
2022/03/21 07:39:51;;;;;;;16.88;11.45;;;17.50;79.20;;;;;;5021527;28;20438;-71
2022/03/21 07:42:19;;;;;;;20.95;13.68;;;17.70;78.70;;;;;;4999831;28;20404;-70
2022/03/21 07:47:29;;;;;;;15.52;11.35;;;17.90;76.40;;;;;;5015509;28;20081;-66
2022/03/21 07:49:55;;;;;;;20.00;12.10;;;17.70;78.70;;;;;;4994242;28;20131;-70
2022/03/21 07:52:21;;;;;;;18.23;11.95;;;17.60;76.00;;;;;;5015049;28;20038;-68
2022/03/21 07:54:53;;;;;;;18.95;12.90;;;18.20;78.80;;;;;;4983257;28;20395;-71
2022/03/21 07:57:20;;;;;;;16.58;12.10;;;18.20;78.70;;;;;;5016899;28;20151;-68
2022/03/21 07:59:46;;;;;;;19.92;12.85;;;18.10;78.50;;;;;;5017298;28;20184;-69
2022/03/21 08:02:12;;;;;;;17.77;13.38;;;17.80;78.30;;;;;;5031032;28;20120;-68
2022/03/21 08:04:38;;;;;;;17.15;13.25;;;;;;;;;;5037025;28;20049;-70
2022/03/21 08:07:04;;;;;;;20.15;12.73;;;18.00;78.40;;;;;;5036708;28;20049;-70
2022/03/21 08:09:29;;;;;;;16.20;12.27;;;18.00;78.50;;;;;;5035789;28;20510;-70
2022/03/21 08:11:57;;;;;;;17.70;12.02;;;;;;;;;;5025760;28;20045;-66
2022/03/21 08:14:23;;;;;;;17.85;13.20;;;17.80;78.40;;;;;;5035746;28;20041;-66
2022/03/21 08:16:50;;;;;;;21.98;12.15;;;18.00;78.30;;;;;;5027476;28;20048;-69
2022/03/21 08:19:16;;;;;;;17.65;11.88;;;17.80;78.30;;;;;;5034105;28;20041;-67
2022/03/21 08:21:43;;;;;;;18.17;11.70;;;17.80;78.30;;;;;;5034750;28;20448;-68
2022/03/21 08:24:08;;;;;;;20.67;12.43;;;17.70;78.30;;;;;;5033977;28;20048;-72
2022/03/21 08:26:35;;;;;;;22.30;12.15;;;;;;;;;;5034785;28;20484;-71
2022/03/21 08:29:01;;;;;;;17.90;12.20;;;18.00;78.00;;;;;;5035040;28;20037;-69
2022/03/21 08:31:27;;;;;;;21.60;11.80;;;17.80;78.30;;;;;;5031949;28;20124;-70
2022/03/21 08:33:53;;;;;;;15.75;11.40;;;;;;;;;;5017335;28;20133;-64
2022/03/21 08:36:19;;;;;;;18.50;12.25;;;17.90;78.30;;;;;;5020152;28;20095;-65
2022/03/21 08:38:44;;;;;;;17.52;11.38;;;17.90;78.40;;;;;;5019713;28;20050;-65
2022/03/21 08:41:11;;;;;;;17.75;11.48;;;18.30;78.50;;;;;;5016154;28;20458;-65
2022/03/21 08:43:37;;;;;;;18.48;12.20;;;18.00;78.30;;;;;;5034622;28;20057;-63
2022/03/21 08:46:03;;;;;;;18.58;11.35;;;17.60;78.30;;;;;;5028628;28;20042;-70
2022/03/21 08:51:13;;;;;;;16.00;10.75;;;18.10;78.30;;;;;;5033654;28;20128;-65
2022/03/21 08:53:39;;;;;;;15.70;10.88;;;18.10;78.40;;;;;;5033475;28;20120;-66
2022/03/21 08:56:04;;;;;;;17.83;11.88;;;18.30;78.50;;;;;;5022661;28;20045;-66
2022/03/21 08:58:30;;;;;;;18.25;11.55;;;18.20;75.70;;;;;;5028623;28;20052;-67
2022/03/21 09:00:57;;;;;;;17.20;11.25;;;;;;;;;;5035331;28;20044;-65
2022/03/21 09:03:22;;;;;;;17.88;11.75;;;18.30;78.30;;;;;;5030273;28;20041;-66
2022/03/21 09:05:48;;;;;;;18.60;11.35;;;18.30;78.20;;;;;;5013185;28;20053;-61
2022/03/21 09:08:15;;;;;;;17.52;10.73;;;18.50;78.40;;;;;;5023455;28;20045;-65
2022/03/21 09:10:41;;;;;;;14.82;10.50;;;18.60;78.40;;;;;;5035364;28;20054;-62
2022/03/21 09:13:07;;;;;;;15.93;11.00;;;;;;;;;;5029224;28;20041;-65
2022/03/21 09:15:34;;;;;;;16.45;10.80;;;18.60;78.20;;;;;;5032435;28;20121;-65
2022/03/21 09:18:01;;;;;;;15.05;11.00;;;18.50;78.20;;;;;;5018465;28;20053;-64
2022/03/21 09:20:27;;;;;;;16.48;10.35;;;18.60;78.30;;;;;;5025571;28;20061;-64
2022/03/21 09:22:52;;;;;;;16.13;10.45;;;18.40;78.30;;;;;;5025117;28;20559;-64
2022/03/21 09:25:18;;;;;;;15.48;10.15;;;19.00;78.70;;;;;;5014911;28;20046;-67
2022/03/21 09:27:44;;;;;;;17.05;9.95;;;18.90;78.50;;;;;;5032276;28;20076;-65
2022/03/21 09:30:11;;;;;;;16.33;9.60;;;18.90;78.30;;;;;;5034516;28;20033;-66
2022/03/21 09:32:37;;;;;;;16.38;9.52;;;18.90;78.30;;;;;;5025248;28;20052;-64
2022/03/21 09:35:05;;;;;;;15.60;9.40;;;19.10;78.40;;;;;;5034884;28;20068;-64
2022/03/21 09:37:32;;;;;;;13.45;9.10;;;18.90;74.50;;;;;;5033417;28;20042;-68
2022/03/21 09:39:58;;;;;;;13.98;9.23;;;19.10;78.20;;;;;;5032149;28;20053;-69
2022/03/21 09:42:25;;;;;;;13.00;9.15;;;19.10;78.00;;;;;;5014669;28;20503;-66
2022/03/21 09:44:53;;;;;;;13.10;8.48;;;19.10;78.20;;;;;;5026959;28;20049;-68
2022/03/21 09:50:12;;;;;;;13.38;8.90;;;19.30;75.60;;;;;;5017580;28;20527;-65
2022/03/21 09:52:38;;;;;;;15.88;9.10;;;19.30;78.20;;;;;;5014570;28;20038;-67
2022/03/21 09:55:05;;;;;;;13.90;8.40;;;19.00;78.20;;;;;;5014886;28;20049;-66
2022/03/21 09:57:31;;;;;;;17.30;9.80;;;18.90;78.00;;;;;;5015190;28;20495;-65
2022/03/21 09:59:58;;;;;;;11.68;8.43;;;19.20;78.20;;;;;;5014371;28;20073;-69
2022/03/21 10:02:24;;;;;;;19.83;8.35;;;19.10;75.60;;;;;;5027310;28;20065;-69
2022/03/21 10:04:50;;;;;;;18.33;8.38;;;19.30;78.30;;;;;;5033844;28;20041;-70
2022/03/21 10:07:24;;;;;;;15.13;8.50;;;18.90;78.10;;;;;;5029246;28;20103;-65
2022/03/21 10:10:10;;;;;;;17.02;9.43;;;19.30;78.40;;;;;;5026821;28;20108;-64
2022/03/21 10:12:36;;;;;;;15.25;7.97;;;19.10;78.40;;;;;;5020441;28;20447;-65
2022/03/21 10:15:06;;;;;;;13.38;8.38;;;19.30;78.60;;;;;;5016000;28;20040;-62
2022/03/21 10:17:32;;;;;;;15.60;8.85;;;19.30;78.60;;;;;;5014209;28;20046;-62
2022/03/21 10:19:58;;;;;;;16.77;8.93;;;19.20;78.50;;;;;;4996760;28;20053;-62
2022/03/21 10:22:33;;;;;;;15.65;9.00;;;19.40;78.60;;;;;;5013688;28;20121;-62
2022/03/21 10:25:06;;;;;;;15.43;9.98;;;19.20;78.50;;;;;;5030326;28;20438;-64
2022/03/21 10:27:37;;;;;;;16.58;11.85;;;19.20;78.40;;;;;;5032468;28;20048;-64
2022/03/21 10:30:18;;;;;;;16.83;11.38;;;19.40;78.50;;;;;;5031712;28;20137;-64
2022/03/21 10:32:54;;;;;;;17.00;11.50;;;19.10;78.30;;;;;;5027008;28;20042;-64
2022/03/21 10:35:28;;;;;;;16.15;11.30;;;19.20;78.50;;;;;;5041811;28;20506;-69
2022/03/21 10:38:01;;;;;;;19.48;12.00;;;18.80;78.20;;;;;;5033408;28;20377;-62
2022/03/21 10:40:30;;;;;;;19.85;12.02;;;19.00;75.40;;;;;;5033694;28;20047;-62
2022/03/21 10:43:00;;;;;;;19.23;11.23;;;19.00;75.90;;;;;;5015987;28;20116;-64
2022/03/21 10:45:37;;;;;;;17.73;10.73;;;18.90;78.60;;;;;;5032146;28;20080;-71
2022/03/21 10:48:07;;;;;;;17.15;11.82;;;19.30;79.30;;;;;;5028810;28;20496;-62
2022/03/21 10:50:35;;;;;;;15.57;11.25;;;19.10;76.00;;;;;;5021031;28;20427;-62
2022/03/21 10:53:05;;;;;;;16.75;11.63;;;19.20;79.00;;;;;;5025719;28;20041;-62
2022/03/21 10:55:31;;;;;;;26.75;12.40;;;18.90;78.80;;;;;;5025799;28;20111;-62
2022/03/21 10:57:57;;;;;;;26.63;12.77;;;19.00;78.80;;;;;;5015945;28;20045;-64
2022/03/21 11:00:24;;;;;;;23.65;12.43;;;19.10;78.80;;;;;;5032136;28;20046;-67
2022/03/21 11:02:58;;;;;;;33.85;12.75;;;19.00;78.90;;;;;;5012711;28;20038;-70
2022/03/21 11:05:26;;;;;;;25.80;12.43;;;19.10;76.50;;;;;;5020513;28;20089;-67
2022/03/21 11:07:53;;;;;;;22.60;11.45;;;19.40;79.30;;;;;;5031461;28;20407;-66
2022/03/21 11:10:19;;;;;;;24.55;11.23;;;19.20;79.40;;;;;;5033022;28;20049;-62
2022/03/21 11:12:45;;;;;;;18.98;11.18;;;19.10;79.10;;;;;;5015481;28;20048;-61
2022/03/21 11:15:12;;;;;;;22.77;10.95;;;19.30;79.10;;;;;;5033373;28;20077;-62
2022/03/21 11:17:38;;;;;;;17.25;11.20;;;19.40;79.50;;;;;;5033091;28;20050;-62
2022/03/21 11:20:08;;;;;;;18.45;10.60;;;19.30;79.40;;;;;;5033384;28;20045;-62
2022/03/21 11:22:34;;;;;;;17.40;10.57;;;19.50;79.30;;;;;;5030934;28;20045;-65
2022/03/21 11:25:11;;;;;;;16.98;10.60;;;19.40;79.30;;;;;;5033206;28;20095;-61
2022/03/21 11:27:56;;;;;;;16.45;9.40;;;19.50;79.60;;;;;;5033304;28;20125;-62
2022/03/21 11:30:53;;;;;;;17.35;10.00;;;19.40;79.30;;;;;;5033191;28;20050;-62
2022/03/21 11:33:36;;;;;;;14.18;8.77;;;19.80;79.80;;;;;;5033558;28;20091;-62
2022/03/21 11:36:07;;;;;;;16.20;9.60;;;19.70;79.90;;;;;;5031604;28;20083;-63
2022/03/21 11:38:47;;;;;;;21.38;10.52;;;19.70;79.50;;;;;;5025632;28;20041;-63
2022/03/21 11:41:21;;;;;;;15.45;9.60;;;20.10;77.70;;;;;;5013434;28;20042;-61
2022/03/21 11:43:47;;;;;;;14.65;8.93;;;20.00;79.80;;;;;;5016978;28;20046;-62
2022/03/21 11:46:30;;;;;;;12.23;8.60;;;20.00;80.10;;;;;;5004980;28;20057;-68
2022/03/21 11:49:05;;;;;;;14.57;8.55;;;20.10;80.20;;;;;;5013365;28;20092;-71
2022/03/21 11:51:35;;;;;;;15.57;9.80;;;20.10;79.90;;;;;;5012912;28;20046;-64
2022/03/21 11:54:01;;;;;;;12.30;8.68;;;20.10;80.20;;;;;;5013001;28;20054;-62
2022/03/21 11:56:36;;;;;;;12.75;8.15;;;20.20;79.80;;;;;;5018656;28;20046;-63
2022/03/21 11:59:02;;;;;;;15.35;9.52;;;20.40;80.30;;;;;;5032962;28;20051;-63
2022/03/21 12:01:29;;;;;;;15.85;9.35;;;20.40;80.00;;;;;;5032580;28;20049;-68
2022/03/21 12:03:55;;;;;;;16.48;9.23;;;20.20;79.80;;;;;;5032900;28;20056;-61
2022/03/21 12:06:30;;;;;;;15.35;9.30;;;20.40;79.80;;;;;;5032817;28;20376;-62
2022/03/21 12:08:59;;;;;;;12.45;7.80;;;20.50;79.80;;;;;;5036000;28;20523;-61
2022/03/21 12:11:46;;;;;;;12.10;8.35;;;20.60;75.80;;;;;;5036160;28;20529;-64
2022/03/21 12:14:36;;;;;;;12.25;9.00;;;20.50;79.80;;;;;;5035484;28;20042;-61
2022/03/21 12:17:02;;;;;;;14.27;8.68;;;20.40;79.80;;;;;;5036320;28;20179;-69
2022/03/21 12:19:51;;;;;;;12.00;8.23;;;20.60;79.90;;;;;;5018280;28;20140;-61
2022/03/21 12:24:59;;;;;;;11.65;7.75;;;20.40;79.60;;;;;;5036075;28;20049;-61
2022/03/21 12:27:34;;;;;;;9.63;7.28;;;20.50;79.60;;;;;;5036076;28;20056;-62
2022/03/21 12:30:34;;;;;;;13.05;8.43;;;20.30;79.50;;;;;;5035105;28;20131;-62
2022/03/21 12:33:09;;;;;;;13.70;8.93;;;20.50;79.50;;;;;;4991174;28;20086;-62
2022/03/21 12:35:35;;;;;;;14.77;8.35;;;20.30;79.30;;;;;;4974764;28;20061;-62
2022/03/21 12:38:07;;;;;;;13.48;8.50;;;20.20;79.40;;;;;;4974880;28;20412;-62
2022/03/21 12:40:37;;;;;;;16.38;8.32;;;20.30;79.40;;;;;;4991003;28;20054;-62
2022/03/21 12:43:03;;;;;;;12.30;8.38;;;20.40;79.70;;;;;;4974871;28;20055;-62
2022/03/21 12:45:29;;;;;;;14.07;8.85;;;20.50;79.40;;;;;;4974645;28;20117;-61
2022/03/21 12:48:05;;;;;;;14.20;8.20;;;20.30;79.30;;;;;;4974444;28;20047;-62
2022/03/21 12:50:32;;;;;;;15.18;9.35;;;20.50;79.60;;;;;;4978456;28;20042;-62
2022/03/21 12:53:11;;;;;;;20.60;8.82;;;20.40;76.50;;;;;;4976797;28;20635;-63
2022/03/21 12:55:37;;;;;;;15.65;8.65;;;20.60;79.60;;;;;;4990209;28;20150;-65
2022/03/21 12:58:09;;;;;;;13.98;8.85;;;20.30;79.50;;;;;;4974382;28;20054;-64
2022/03/21 13:00:38;;;;;;;16.95;9.75;;;20.60;79.70;;;;;;4960543;28;20043;-61
2022/03/21 13:03:11;;;;;;;16.63;10.07;;;20.40;79.50;;;;;;4958639;28;20101;-63
2022/03/21 13:11:26;;;;;;;17.90;9.27;;;20.20;79.50;;;;;;5021738;28;20045;-63
2022/03/21 13:13:53;;;;;;;18.38;8.43;;;20.20;79.80;;;;;;5030461;28;20451;-65
2022/03/21 13:16:20;;;;;;;12.05;8.10;;;20.40;79.70;;;;;;5015385;28;20057;-65
2022/03/21 13:18:46;;;;;;;12.50;8.20;;;20.30;79.60;;;;;;5020925;28;20053;-66
2022/03/21 13:21:12;;;;;;;14.48;8.60;;;20.10;79.50;;;;;;5028959;28;20038;-63